createdAt,value
2023-03-05T00:03:04.538Z,74.53
2023-03-05T00:08:06.857Z,74.49
2023-03-05T00:13:08.637Z,74.16
2023-03-05T00:18:10.372Z,74.27
2023-03-05T00:23:12.275Z,74.02
2023-03-05T00:28:14.069Z,74.01
2023-03-05T00:33:16.191Z,73.80
2023-03-05T00:38:18.129Z,73.80
2023-03-05T00:43:20.065Z,73.52
2023-03-05T00:48:25.645Z,73.56
2023-03-05T00:53:27.447Z,73.53
2023-03-05T00:58:30.025Z,73.28
2023-03-05T01:03:33.501Z,73.24
2023-03-05T01:08:36.057Z,72.93
2023-03-05T01:13:38.853Z,72.61
2023-03-05T01:18:41.173Z,72.67
2023-03-05T01:23:42.955Z,72.31
2023-03-05T01:28:44.690Z,71.66
2023-03-05T01:33:49.582Z,71.71
2023-03-05T01:38:52.016Z,71.54
2023-03-05T01:43:54.009Z,71.32
2023-03-05T01:49:36.524Z,70.70
2023-03-05T01:54:49.960Z,70.54
2023-03-05T01:59:56.762Z,70.29
2023-03-05T02:05:08.817Z,70.59
2023-03-05T02:10:22.045Z,70.10
2023-03-05T02:15:24.534Z,70.08
2023-03-05T02:20:30.524Z,70.22
2023-03-05T02:25:32.420Z,70.35
2023-03-05T02:30:35.685Z,69.97
2023-03-05T02:35:38.244Z,70.37
2023-03-05T02:40:41.029Z,70.36
2023-03-05T02:45:43.539Z,70.38
2023-03-05T02:50:45.751Z,70.36
2023-03-05T02:55:48.532Z,70.54
2023-03-05T03:00:50.699Z,70.65
2023-03-05T03:05:52.536Z,70.63
2023-03-05T03:10:56.503Z,70.81
2023-03-05T03:16:18.754Z,70.79
2023-03-05T03:21:24.471Z,70.33
2023-03-05T03:26:26.758Z,70.14
2023-03-05T03:31:28.767Z,69.90
2023-03-05T03:36:30.623Z,69.79
2023-03-05T03:41:33.513Z,69.64
2023-03-05T03:46:35.465Z,69.53
2023-03-05T03:51:37.497Z,69.27
2023-03-05T03:56:39.359Z,69.06
2023-03-05T04:01:41.402Z,69.08
2023-03-05T04:06:43.989Z,68.91
2023-03-05T04:11:45.875Z,68.97
2023-03-05T04:16:47.871Z,68.78
2023-03-05T04:21:49.693Z,68.50
2023-03-05T04:26:51.490Z,68.69
2023-03-05T04:31:53.266Z,68.32
2023-03-05T04:37:21.087Z,68.21
2023-03-05T04:42:22.837Z,68.34
2023-03-05T04:47:24.711Z,68.12
2023-03-05T04:52:27.179Z,68.55
2023-03-05T04:57:28.984Z,68.66
2023-03-05T05:02:30.854Z,68.82
2023-03-05T05:07:32.898Z,68.76
2023-03-05T05:12:35.864Z,69.12
2023-03-05T05:17:37.683Z,69.50
2023-03-05T05:22:39.922Z,69.91
2023-03-05T05:27:41.806Z,69.92
2023-03-05T05:32:43.650Z,70.07
2023-03-05T05:37:45.760Z,69.89
2023-03-05T05:42:48.747Z,70.19
2023-03-05T05:47:51.783Z,70.30
2023-03-05T05:52:54.852Z,70.35
2023-03-05T05:57:58.483Z,70.26
2023-03-05T06:03:04.524Z,70.01
2023-03-05T06:08:07.021Z,69.59
2023-03-05T06:13:08.922Z,69.40
2023-03-05T06:18:10.782Z,69.23
2023-03-05T06:23:12.648Z,69.40
2023-03-05T06:28:14.537Z,69.48
2023-03-05T06:33:16.360Z,69.39
2023-03-05T06:38:18.353Z,69.18
2023-03-05T06:43:20.295Z,69.23
2023-03-05T06:48:22.186Z,69.25
2023-03-05T06:53:25.593Z,68.74
2023-03-05T06:58:27.453Z,68.50
2023-03-05T07:03:29.283Z,68.77
2023-03-05T07:08:32.201Z,68.99
2023-03-05T07:13:33.945Z,69.19
2023-03-05T07:18:35.905Z,69.46
2023-03-05T07:23:37.960Z,69.36
2023-03-05T07:28:40.097Z,69.59
2023-03-05T07:33:42.265Z,69.61
2023-03-05T07:38:45.447Z,69.88
2023-03-05T07:43:48.969Z,69.92
2023-03-05T07:48:50.958Z,70.28
2023-03-05T07:53:55.268Z,70.47
2023-03-05T07:58:57.245Z,70.54
2023-03-05T08:03:59.205Z,70.85
2023-03-05T08:09:01.195Z,71.26
2023-03-05T08:14:04.662Z,71.89
2023-03-05T08:19:06.609Z,72.24
2023-03-05T08:24:12.320Z,72.52
2023-03-05T08:29:14.220Z,73.10
2023-03-05T08:34:16.158Z,73.24
2023-03-05T08:39:18.991Z,73.40
2023-03-05T08:44:21.206Z,73.44
2023-03-05T08:49:23.561Z,73.51
2023-03-05T08:54:25.640Z,73.72
2023-03-05T08:59:27.571Z,73.70
2023-03-05T09:04:29.460Z,73.83
2023-03-05T09:09:33.072Z,73.79
2023-03-05T09:14:35.034Z,73.78
2023-03-05T09:19:37.282Z,73.99
2023-03-05T09:24:39.577Z,74.10
2023-03-05T09:29:43.148Z,74.12
2023-03-05T09:34:45.526Z,74.15
2023-03-05T09:39:47.568Z,74.35
2023-03-05T09:45:15.735Z,74.43
2023-03-05T09:50:39.081Z,74.74
2023-03-05T09:55:47.327Z,74.68
2023-03-05T10:00:55.844Z,74.68
2023-03-05T10:06:18.891Z,74.72
2023-03-05T10:11:43.691Z,74.48
2023-03-05T10:16:51.312Z,73.80
2023-03-05T10:22:21.063Z,72.87
2023-03-05T10:28:05.941Z,72.64
2023-03-05T10:33:45.133Z,71.89
2023-03-05T10:39:09.749Z,71.34
2023-03-05T10:44:20.844Z,70.75
2023-03-05T10:49:32.467Z,70.24
2023-03-05T10:54:36.155Z,70.10
2023-03-05T10:59:38.173Z,70.26
2023-03-05T11:04:41.340Z,69.95
2023-03-05T11:09:53.848Z,70.26
2023-03-05T11:15:09.614Z,70.42
2023-03-05T11:20:26.741Z,70.81
2023-03-05T11:25:29.035Z,70.93
2023-03-05T11:30:37.623Z,71.39
2023-03-05T11:35:42.225Z,71.58
2023-03-05T11:40:48.768Z,71.61
2023-03-05T11:45:55.933Z,72.10
2023-03-05T11:51:07.561Z,71.99
2023-03-05T11:56:30.394Z,72.06
2023-03-05T12:01:36.347Z,72.14
2023-03-05T12:06:44.608Z,72.42
2023-03-05T12:11:51.768Z,72.74
2023-03-05T12:17:11.915Z,73.02
2023-03-05T12:22:22.174Z,73.04
2023-03-05T12:27:36.958Z,73.04
2023-03-05T12:32:46.464Z,73.09
2023-03-05T12:37:51.674Z,72.96
2023-03-05T12:42:53.635Z,73.08
2023-03-05T12:47:55.521Z,72.90
2023-03-05T12:52:59.270Z,72.59
2023-03-05T12:58:13.685Z,72.57
2023-03-05T13:03:26.906Z,72.72
2023-03-05T13:08:31.804Z,73.03
2023-03-05T13:13:38.010Z,73.15
2023-03-05T13:18:41.378Z,73.10
2023-03-05T13:23:58.467Z,73.05
2023-03-05T13:29:22.175Z,73.06
2023-03-05T13:34:46.099Z,72.71
2023-03-05T13:39:54.196Z,72.73
2023-03-05T13:45:08.012Z,72.64
2023-03-05T13:50:25.170Z,72.49
2023-03-05T13:55:27.308Z,72.38
2023-03-05T14:00:36.091Z,72.27
2023-03-05T14:05:44.852Z,72.11
2023-03-05T14:10:47.058Z,72.27
2023-03-05T14:16:04.155Z,72.29
2023-03-05T14:21:09.017Z,72.20
2023-03-05T14:26:29.387Z,72.08
2023-03-05T14:31:38.976Z,72.13
2023-03-05T14:36:49.867Z,72.13
2023-03-05T14:41:51.863Z,72.21
2023-03-05T14:46:53.745Z,72.35
2023-03-05T14:51:55.658Z,72.95
2023-03-05T14:56:57.477Z,73.30
2023-03-05T15:01:59.251Z,73.52
2023-03-05T15:07:01.223Z,73.77
2023-03-05T15:12:03.093Z,74.07
2023-03-05T15:17:05.022Z,74.31
2023-03-05T15:22:07.009Z,74.21
2023-03-05T15:27:09.082Z,74.36
2023-03-05T15:32:11.126Z,74.51
2023-03-05T15:37:13.235Z,74.20
2023-03-05T15:42:15.216Z,74.28
2023-03-05T15:47:17.056Z,74.29
2023-03-05T15:52:19.031Z,74.04
2023-03-05T15:57:24.534Z,74.10
2023-03-05T16:02:26.603Z,74.01
2023-03-05T16:07:29.564Z,73.85
2023-03-05T16:12:43.301Z,74.07
2023-03-05T16:17:48.841Z,73.84
2023-03-05T16:22:51.208Z,73.89
2023-03-05T16:27:53.250Z,73.95
2023-03-05T16:32:55.295Z,73.87
2023-03-05T16:37:57.221Z,73.87
2023-03-05T16:42:59.124Z,73.89
2023-03-05T16:48:00.938Z,73.95
2023-03-05T16:53:03.180Z,73.78
2023-03-05T16:58:05.778Z,73.74
2023-03-05T17:03:09.350Z,73.98
2023-03-05T17:08:11.237Z,73.82
2023-03-05T17:13:13.005Z,73.67
2023-03-05T17:18:14.794Z,73.82
2023-03-05T17:23:16.685Z,73.66
2023-03-05T17:28:18.635Z,73.49
2023-03-05T17:33:20.528Z,73.49
2023-03-05T17:38:23.284Z,73.71
2023-03-05T17:43:25.072Z,73.65
2023-03-05T17:48:27.630Z,73.43
2023-03-05T17:53:29.361Z,73.33
2023-03-05T17:58:31.116Z,73.48
2023-03-05T18:03:33.451Z,73.39
2023-03-05T18:08:35.193Z,73.50
2023-03-05T18:13:37.293Z,73.37
2023-03-05T18:18:39.121Z,73.49
2023-03-05T18:23:40.978Z,73.37
2023-03-05T18:28:42.823Z,73.45
2023-03-05T18:33:44.993Z,73.35
2023-03-05T18:38:46.937Z,73.45
2023-03-05T18:43:48.985Z,73.28
2023-03-05T18:48:50.807Z,73.25
2023-03-05T18:53:55.203Z,73.30
2023-03-05T18:58:58.644Z,73.52
2023-03-05T19:04:00.922Z,73.57
2023-03-05T19:09:08.699Z,73.71
2023-03-05T19:14:10.815Z,73.73
2023-03-05T19:19:22.782Z,73.71
2023-03-05T19:24:26.896Z,73.88
2023-03-05T19:29:33.130Z,73.92
2023-03-05T19:34:35.793Z,73.89
2023-03-05T19:39:38.277Z,73.97
2023-03-05T19:44:40.068Z,73.92
2023-03-05T19:49:42.255Z,73.76
2023-03-05T19:54:44.085Z,73.83
2023-03-05T19:59:47.087Z,74.07
2023-03-05T20:04:49.791Z,73.91
2023-03-05T20:09:55.607Z,74.13
2023-03-05T20:14:57.646Z,73.97
2023-03-05T20:20:00.263Z,74.37
2023-03-05T20:25:02.328Z,74.31
2023-03-05T20:30:07.173Z,74.08
2023-03-05T20:35:13.904Z,74.11
2023-03-05T20:40:17.038Z,74.30
2023-03-05T20:45:18.935Z,74.29
2023-03-05T20:50:20.984Z,74.27
2023-03-05T20:55:23.738Z,74.41
2023-03-05T21:00:26.670Z,74.37
2023-03-05T21:05:30.377Z,74.48
2023-03-05T21:10:32.828Z,74.49
2023-03-05T21:15:34.626Z,74.44
2023-03-05T21:20:36.531Z,74.30
2023-03-05T21:25:38.353Z,74.41
2023-03-05T21:30:46.861Z,74.60
2023-03-05T21:35:49.604Z,74.52
2023-03-05T21:40:54.055Z,74.52
2023-03-05T21:45:57.476Z,74.48
2023-03-05T21:50:59.501Z,74.65
2023-03-05T21:56:21.135Z,74.73
2023-03-05T22:01:23.061Z,74.59
2023-03-05T22:06:24.905Z,74.68
2023-03-05T22:11:30.191Z,74.74
2023-03-05T22:16:32.030Z,74.49
2023-03-05T22:21:33.881Z,74.53
2023-03-05T22:26:38.360Z,74.52
2023-03-05T22:31:41.077Z,74.58
2023-03-05T22:36:42.974Z,74.40
2023-03-05T22:41:45.173Z,74.58
2023-03-05T22:46:47.187Z,74.57
2023-03-05T22:51:49.025Z,74.57
2023-03-05T22:56:50.896Z,74.49
2023-03-05T23:01:52.632Z,74.44
2023-03-05T23:06:55.927Z,74.58
2023-03-05T23:11:58.053Z,74.38
2023-03-05T23:17:00.059Z,74.38
2023-03-05T23:22:01.855Z,74.18
2023-03-05T23:27:06.045Z,74.17
2023-03-05T23:32:08.040Z,74.29
2023-03-05T23:37:09.999Z,74.27
2023-03-05T23:42:11.935Z,74.19
2023-03-05T23:47:13.804Z,74.33
2023-03-05T23:52:15.795Z,74.19
2023-03-05T23:57:17.681Z,74.09
